createdAt,value
2023-03-06T00:01:25.735Z,63.80
2023-03-06T00:03:56.313Z,64.19
2023-03-06T00:06:26.013Z,63.77
2023-03-06T00:08:55.220Z,63.78
2023-03-06T00:11:24.870Z,64.22
2023-03-06T00:13:54.023Z,63.90
2023-03-06T00:16:23.524Z,63.78
2023-03-06T00:18:52.886Z,63.76
2023-03-06T00:21:23.745Z,64.17
2023-03-06T00:23:52.941Z,64.40
2023-03-06T00:26:22.362Z,64.37
2023-03-06T00:28:52.122Z,64.44
2023-03-06T00:31:21.520Z,64.93
2023-03-06T00:33:50.745Z,64.82
2023-03-06T00:36:22.136Z,64.85
2023-03-06T00:38:51.463Z,64.96
2023-03-06T00:41:21.072Z,65.33
2023-03-06T00:43:50.261Z,65.01
2023-03-06T00:46:19.654Z,64.67
2023-03-06T00:48:48.812Z,64.66
2023-03-06T00:51:19.906Z,65.18
2023-03-06T00:53:50.525Z,65.38
2023-03-06T00:56:20.932Z,65.43
2023-03-06T00:58:50.226Z,64.98
2023-03-06T01:01:19.702Z,64.68
2023-03-06T01:03:49.105Z,64.88
2023-03-06T01:06:18.659Z,65.05
2023-03-06T01:08:49.397Z,64.99
2023-03-06T01:11:20.186Z,65.41
2023-03-06T01:13:49.762Z,65.25
2023-03-06T01:16:21.299Z,65.73
2023-03-06T01:18:51.281Z,65.72
2023-03-06T01:21:20.829Z,65.50
2023-03-06T01:23:51.524Z,66.22
2023-03-06T01:26:21.072Z,65.88
2023-03-06T01:28:50.335Z,65.95
2023-03-06T01:31:19.851Z,66.14
2023-03-06T01:33:49.005Z,65.99
2023-03-06T01:36:18.806Z,66.01
2023-03-06T01:38:48.070Z,66.61
2023-03-06T01:41:21.177Z,66.42
2023-03-06T01:43:51.213Z,66.36
2023-03-06T01:46:29.690Z,66.60
2023-03-06T01:49:01.467Z,66.50
2023-03-06T01:51:34.448Z,66.14
2023-03-06T01:54:10.157Z,66.07
2023-03-06T01:56:45.481Z,66.50
2023-03-06T01:59:15.271Z,66.25
2023-03-06T02:01:45.928Z,65.97
2023-03-06T02:04:17.686Z,66.23
2023-03-06T02:06:48.331Z,65.98
2023-03-06T02:09:18.145Z,65.92
2023-03-06T02:11:49.055Z,66.30
2023-03-06T02:14:19.583Z,66.32
2023-03-06T02:16:49.644Z,66.61
2023-03-06T02:19:31.144Z,66.36
2023-03-06T02:22:01.276Z,66.33
2023-03-06T02:24:38.609Z,66.12
2023-03-06T02:27:14.294Z,66.05
2023-03-06T02:29:43.816Z,66.57
2023-03-06T02:32:13.649Z,66.36
2023-03-06T02:34:58.076Z,66.91
2023-03-06T02:37:29.927Z,66.82
2023-03-06T02:40:12.351Z,66.37
2023-03-06T02:42:48.062Z,66.64
2023-03-06T02:45:23.350Z,66.56
2023-03-06T02:47:52.825Z,66.42
2023-03-06T02:50:22.107Z,66.19
2023-03-06T02:52:51.635Z,66.17
2023-03-06T02:55:20.881Z,66.06
2023-03-06T02:57:52.105Z,66.22
2023-03-06T03:00:22.172Z,66.36
2023-03-06T03:02:51.524Z,66.18
2023-03-06T03:05:21.320Z,66.17
2023-03-06T03:07:57.737Z,65.87
2023-03-06T03:10:27.245Z,65.83
2023-03-06T03:12:58.746Z,65.83
2023-03-06T03:15:28.139Z,65.59
2023-03-06T03:17:57.584Z,65.64
2023-03-06T03:20:26.775Z,65.59
2023-03-06T03:22:57.505Z,65.63
2023-03-06T03:25:27.628Z,66.45
2023-03-06T03:28:01.248Z,66.07
2023-03-06T03:30:31.162Z,65.65
2023-03-06T03:33:00.893Z,65.87
2023-03-06T03:35:30.180Z,66.04
2023-03-06T03:38:00.250Z,65.61
2023-03-06T03:40:29.968Z,65.59
2023-03-06T03:43:02.748Z,65.96
2023-03-06T03:45:32.111Z,65.86
2023-03-06T03:48:01.573Z,65.91
2023-03-06T03:50:30.847Z,65.68
2023-03-06T03:53:00.292Z,65.86
2023-03-06T03:55:30.112Z,66.20
2023-03-06T03:58:01.365Z,66.20
2023-03-06T04:00:30.961Z,65.96
2023-03-06T04:03:10.449Z,66.21
2023-03-06T04:05:43.771Z,65.59
2023-03-06T04:08:16.258Z,65.16
2023-03-06T04:10:48.003Z,65.32
2023-03-06T04:13:21.127Z,65.32
2023-03-06T04:15:53.061Z,65.15
2023-03-06T04:18:25.389Z,64.84
2023-03-06T04:20:57.480Z,64.75
2023-03-06T04:23:28.014Z,64.70
2023-03-06T04:25:57.159Z,64.48
2023-03-06T04:28:28.446Z,64.45
2023-03-06T04:30:58.038Z,64.11
2023-03-06T04:33:27.885Z,64.42
2023-03-06T04:35:57.561Z,64.71
2023-03-06T04:38:31.338Z,64.46
2023-03-06T04:41:00.681Z,63.82
2023-03-06T04:43:31.634Z,64.33
2023-03-06T04:46:00.829Z,64.54
2023-03-06T04:48:30.394Z,64.63
2023-03-06T04:50:59.503Z,64.43
2023-03-06T04:53:28.994Z,63.99
2023-03-06T04:55:58.168Z,64.21
2023-03-06T04:58:27.746Z,64.33
2023-03-06T05:00:58.515Z,64.00
2023-03-06T05:03:28.006Z,63.68
2023-03-06T05:05:57.211Z,63.93
2023-03-06T05:08:26.718Z,64.22
2023-03-06T05:10:57.692Z,64.03
2023-03-06T05:13:28.604Z,63.64
2023-03-06T05:16:03.811Z,63.78
2023-03-06T05:18:33.735Z,64.18
2023-03-06T05:21:03.449Z,64.41
2023-03-06T05:23:34.550Z,63.80
2023-03-06T05:26:06.632Z,64.21
2023-03-06T05:28:36.151Z,63.74
2023-03-06T05:31:07.996Z,63.94
2023-03-06T05:33:38.577Z,63.70
2023-03-06T05:36:09.181Z,64.30
2023-03-06T05:38:38.703Z,64.72
2023-03-06T05:41:07.874Z,64.85
2023-03-06T05:43:37.390Z,65.33
2023-03-06T05:46:08.884Z,65.11
2023-03-06T05:48:38.825Z,65.38
2023-03-06T05:51:08.212Z,65.93
2023-03-06T05:53:37.995Z,65.91
2023-03-06T05:56:10.073Z,66.04
2023-03-06T05:58:40.426Z,65.91
2023-03-06T06:01:15.425Z,66.13
2023-03-06T06:03:45.674Z,66.34
2023-03-06T06:06:16.305Z,65.81
2023-03-06T06:08:45.882Z,65.91
2023-03-06T06:11:15.610Z,65.87
2023-03-06T06:13:45.237Z,65.78
2023-03-06T06:16:17.410Z,65.90
2023-03-06T06:18:47.247Z,65.97
2023-03-06T06:21:16.548Z,66.21
2023-03-06T06:23:46.286Z,66.03
2023-03-06T06:26:15.527Z,66.02
2023-03-06T06:28:44.951Z,66.12
2023-03-06T06:31:15.768Z,66.06
2023-03-06T06:33:45.574Z,65.92
2023-03-06T06:36:19.377Z,66.06
2023-03-06T06:38:49.612Z,66.01
2023-03-06T06:41:39.226Z,65.93
2023-03-06T06:44:11.315Z,66.02
2023-03-06T06:49:33.515Z,66.20
2023-03-06T06:52:03.033Z,65.80
2023-03-06T06:54:33.447Z,65.86
2023-03-06T06:57:02.700Z,66.03
2023-03-06T06:59:32.176Z,66.19
2023-03-06T07:02:02.854Z,67.00
2023-03-06T07:04:32.558Z,66.32
2023-03-06T07:07:02.380Z,66.17
2023-03-06T07:09:31.995Z,65.93
2023-03-06T07:12:01.170Z,65.50
2023-03-06T07:14:30.739Z,65.59
2023-03-06T07:17:01.279Z,66.02
2023-03-06T07:19:30.747Z,65.11
2023-03-06T07:22:00.417Z,65.62
2023-03-06T07:24:29.944Z,64.85
2023-03-06T07:26:59.196Z,65.10
2023-03-06T07:29:28.664Z,64.74
2023-03-06T07:31:57.814Z,64.68
2023-03-06T07:34:28.860Z,64.41
2023-03-06T07:36:58.077Z,64.52
2023-03-06T07:39:28.175Z,64.16
2023-03-06T07:41:58.670Z,63.99
2023-03-06T07:44:28.340Z,63.70
2023-03-06T07:46:57.535Z,63.28
2023-03-06T07:49:28.577Z,62.91
2023-03-06T07:51:57.788Z,63.54
2023-03-06T07:54:27.285Z,62.50
2023-03-06T07:56:56.460Z,62.17
2023-03-06T07:59:25.935Z,62.65
2023-03-06T08:01:57.526Z,61.61
2023-03-06T08:04:29.121Z,61.61
2023-03-06T08:07:01.616Z,61.89
2023-03-06T08:09:31.086Z,61.31
2023-03-06T08:12:00.227Z,60.54
2023-03-06T08:14:29.785Z,60.73
2023-03-06T08:16:59.023Z,60.75
2023-03-06T08:19:29.914Z,60.42
2023-03-06T08:21:59.128Z,60.21
2023-03-06T08:24:28.645Z,59.25
2023-03-06T08:26:57.794Z,59.94
2023-03-06T08:29:27.207Z,59.24
2023-03-06T08:31:56.442Z,59.65
2023-03-06T08:34:26.625Z,58.67
2023-03-06T08:36:57.170Z,58.35
2023-03-06T08:39:26.743Z,56.98
2023-03-06T08:41:55.873Z,57.58
2023-03-06T08:44:26.877Z,57.13
2023-03-06T08:46:57.067Z,57.42
2023-03-06T08:49:26.548Z,57.03
2023-03-06T08:51:57.165Z,56.87
2023-03-06T08:54:26.712Z,56.43
2023-03-06T08:56:55.834Z,56.41
2023-03-06T08:59:25.883Z,56.72
2023-03-06T09:01:55.200Z,56.75
2023-03-06T09:04:24.744Z,56.71
2023-03-06T09:06:55.506Z,56.24
2023-03-06T09:09:26.482Z,55.94
2023-03-06T09:11:56.459Z,54.61
2023-03-06T09:14:26.002Z,54.67
2023-03-06T09:16:55.144Z,54.55
2023-03-06T09:19:24.720Z,54.00
2023-03-06T09:21:54.090Z,53.79
2023-03-06T09:24:23.561Z,54.52
2023-03-06T09:26:54.167Z,53.15
2023-03-06T09:29:23.792Z,54.00
2023-03-06T09:31:52.945Z,53.80
2023-03-06T09:34:22.420Z,52.96
2023-03-06T09:36:56.727Z,53.45
2023-03-06T09:39:27.639Z,52.75
2023-03-06T09:41:59.467Z,52.18
2023-03-06T09:44:31.938Z,52.73
2023-03-06T09:47:31.753Z,51.89
2023-03-06T09:50:23.839Z,51.83
2023-03-06T09:53:04.629Z,51.82
2023-03-06T09:55:36.984Z,52.26
2023-03-06T09:58:15.257Z,51.69
2023-03-06T10:00:53.036Z,51.99
2023-03-06T10:03:27.260Z,51.89
2023-03-06T10:06:02.592Z,51.86
2023-03-06T10:08:45.208Z,51.60
2023-03-06T10:11:20.919Z,51.81
2023-03-06T10:13:55.272Z,52.02
2023-03-06T10:16:28.718Z,51.57
2023-03-06T10:19:01.345Z,50.61
2023-03-06T10:21:43.650Z,51.05
2023-03-06T10:24:25.088Z,50.62
2023-03-06T10:27:01.171Z,50.49
2023-03-06T10:29:56.331Z,49.57
2023-03-06T10:32:48.408Z,49.42
2023-03-06T10:35:22.750Z,50.02
2023-03-06T10:37:59.547Z,49.54
2023-03-06T10:40:38.984Z,49.93
2023-03-06T10:43:12.483Z,49.62
2023-03-06T10:45:53.685Z,48.31
2023-03-06T10:48:26.098Z,49.02
2023-03-06T10:51:18.133Z,48.70
2023-03-06T10:53:54.139Z,49.09
2023-03-06T10:56:35.137Z,48.74
2023-03-06T10:59:12.407Z,49.09
2023-03-06T11:01:44.885Z,48.71
2023-03-06T11:04:24.282Z,47.87
2023-03-06T11:07:09.077Z,47.52
2023-03-06T11:09:38.695Z,47.00
2023-03-06T11:12:26.421Z,43.27
2023-03-06T11:15:17.516Z,45.27
2023-03-06T11:18:00.350Z,43.99
2023-03-06T11:20:48.610Z,43.88
2023-03-06T11:23:23.002Z,42.89
2023-03-06T11:25:57.388Z,43.50
2023-03-06T11:28:31.440Z,43.72
2023-03-06T11:31:07.246Z,42.81
2023-03-06T11:33:45.388Z,42.95
2023-03-06T11:36:20.073Z,42.98
2023-03-06T11:38:53.033Z,42.29
2023-03-06T11:41:33.632Z,41.27
2023-03-06T11:44:07.580Z,42.73
2023-03-06T11:46:41.407Z,42.79
2023-03-06T11:49:23.467Z,43.37
2023-03-06T11:51:57.279Z,43.90
2023-03-06T11:54:26.657Z,43.94
2023-03-06T11:57:00.764Z,43.59
2023-03-06T11:59:52.662Z,44.78
2023-03-06T12:02:34.510Z,44.70
2023-03-06T12:05:24.411Z,44.95
2023-03-06T12:08:03.140Z,44.81
2023-03-06T12:10:39.685Z,44.58
2023-03-06T12:13:35.277Z,44.63
2023-03-06T12:16:24.462Z,44.18
2023-03-06T12:19:05.113Z,45.26
2023-03-06T12:21:42.024Z,44.21
2023-03-06T12:24:30.724Z,45.29
2023-03-06T12:27:10.391Z,45.16
2023-03-06T12:30:16.695Z,45.08
2023-03-06T12:32:52.764Z,45.13
2023-03-06T12:35:35.710Z,45.52
2023-03-06T12:38:24.887Z,45.18
2023-03-06T12:41:05.530Z,45.25
2023-03-06T12:43:55.310Z,44.63
2023-03-06T12:46:26.071Z,45.71
2023-03-06T12:49:04.569Z,45.63
2023-03-06T12:51:35.085Z,45.48
2023-03-06T12:54:05.944Z,45.36
2023-03-06T12:56:36.538Z,45.43
2023-03-06T12:59:05.982Z,45.71
2023-03-06T13:02:17.638Z,45.40
2023-03-06T13:05:01.411Z,45.49
2023-03-06T13:07:55.716Z,45.46
2023-03-06T13:10:29.321Z,45.59
2023-03-06T13:13:01.208Z,45.67
2023-03-06T13:15:40.332Z,45.60
2023-03-06T13:18:51.640Z,45.66
2023-03-06T13:22:01.409Z,45.30
2023-03-06T13:24:33.905Z,45.40
2023-03-06T13:27:07.399Z,45.49
2023-03-06T13:30:19.695Z,45.81
2023-03-06T13:32:49.828Z,45.09
2023-03-06T13:35:49.583Z,45.17
2023-03-06T13:38:54.785Z,45.09
2023-03-06T13:41:55.567Z,45.13
2023-03-06T13:44:51.848Z,45.17
2023-03-06T13:48:02.466Z,44.58
2023-03-06T13:50:38.473Z,44.00
2023-03-06T13:54:04.964Z,43.89
2023-03-06T13:57:28.759Z,42.22
2023-03-06T14:00:37.758Z,43.81
2023-03-06T14:03:40.150Z,43.70
2023-03-06T14:06:50.465Z,42.87
2023-03-06T14:09:27.532Z,43.71
2023-03-06T14:12:01.931Z,43.35
2023-03-06T14:14:37.236Z,43.98
2023-03-06T14:17:07.286Z,43.73
2023-03-06T14:19:40.414Z,43.99
2023-03-06T14:22:18.345Z,43.51
2023-03-06T14:24:56.522Z,43.94
2023-03-06T14:27:40.903Z,44.24
2023-03-06T14:30:13.371Z,44.08
2023-03-06T14:32:43.603Z,44.14
2023-03-06T14:35:30.558Z,44.69
2023-03-06T14:38:04.359Z,45.18
2023-03-06T14:40:36.452Z,45.43
2023-03-06T14:43:13.927Z,46.24
2023-03-06T14:45:54.392Z,46.45
2023-03-06T14:48:24.816Z,46.69
2023-03-06T14:50:56.359Z,47.32
2023-03-06T14:53:30.070Z,47.84
2023-03-06T14:56:01.528Z,47.89
2023-03-06T14:58:35.610Z,48.33
2023-03-06T15:01:07.906Z,48.50
2023-03-06T15:03:47.018Z,48.93
2023-03-06T15:06:21.003Z,50.12
2023-03-06T15:08:59.097Z,50.45
2023-03-06T15:11:28.340Z,50.77
2023-03-06T15:14:04.678Z,51.10
2023-03-06T15:16:33.936Z,51.37
2023-03-06T15:19:05.616Z,51.41
2023-03-06T15:21:38.780Z,51.59
2023-03-06T15:24:35.133Z,51.67
2023-03-06T15:27:06.339Z,51.92
2023-03-06T15:29:39.705Z,52.42
2023-03-06T15:32:17.562Z,52.22
2023-03-06T15:34:47.100Z,52.63
2023-03-06T15:37:29.100Z,52.34
2023-03-06T15:40:18.425Z,53.73
2023-03-06T15:42:50.010Z,54.71
2023-03-06T15:45:22.129Z,55.67
2023-03-06T15:47:52.612Z,55.20
2023-03-06T15:50:24.452Z,54.43
2023-03-06T15:52:54.723Z,54.74
2023-03-06T15:55:28.558Z,54.92
2023-03-06T15:58:00.692Z,54.89
2023-03-06T16:00:33.098Z,55.76
2023-03-06T16:03:03.069Z,55.23
2023-03-06T16:05:33.257Z,55.04
2023-03-06T16:08:02.555Z,56.04
2023-03-06T16:10:37.345Z,57.33
2023-03-06T16:13:12.283Z,56.31
2023-03-06T16:15:46.386Z,56.04
2023-03-06T16:18:16.977Z,56.37
2023-03-06T16:20:50.564Z,56.61
2023-03-06T16:23:19.562Z,56.82
2023-03-06T16:25:51.343Z,56.13
2023-03-06T16:28:20.636Z,56.11
2023-03-06T16:30:50.150Z,56.01
2023-03-06T16:33:19.409Z,56.81
2023-03-06T16:35:50.019Z,56.83
2023-03-06T16:38:19.342Z,57.00
2023-03-06T16:40:50.204Z,57.75
2023-03-06T16:43:19.325Z,57.38
2023-03-06T16:45:48.821Z,57.80
2023-03-06T16:48:18.344Z,57.00
2023-03-06T16:50:48.062Z,57.54
2023-03-06T16:53:17.261Z,57.46
2023-03-06T16:55:47.477Z,57.54
2023-03-06T16:58:18.102Z,57.99
2023-03-06T17:00:47.656Z,58.15
2023-03-06T17:03:18.455Z,57.87
2023-03-06T17:05:47.985Z,59.41
2023-03-06T17:08:17.161Z,59.23
2023-03-06T17:10:47.932Z,59.16
2023-03-06T17:13:19.806Z,59.09
2023-03-06T17:15:56.587Z,60.65
2023-03-06T17:18:27.058Z,60.85
2023-03-06T17:20:58.582Z,62.75
2023-03-06T17:23:30.539Z,63.36
2023-03-06T17:26:08.110Z,64.23
2023-03-06T17:28:40.307Z,63.55
2023-03-06T17:31:14.938Z,63.84
2023-03-06T17:33:45.244Z,62.85
2023-03-06T17:36:15.586Z,63.20
2023-03-06T17:38:45.101Z,63.79
2023-03-06T17:41:15.009Z,62.84
2023-03-06T17:43:45.632Z,62.26
2023-03-06T17:46:15.237Z,62.48
2023-03-06T17:48:44.565Z,63.14
2023-03-06T17:51:14.694Z,63.06
2023-03-06T17:53:44.608Z,62.19
2023-03-06T17:56:16.381Z,62.88
2023-03-06T17:58:50.254Z,62.34
2023-03-06T18:01:23.282Z,62.24
2023-03-06T18:03:54.715Z,62.91
2023-03-06T18:06:28.121Z,63.05
2023-03-06T18:08:58.249Z,62.63
2023-03-06T18:11:28.913Z,62.52
2023-03-06T18:14:00.395Z,62.90
2023-03-06T18:16:31.141Z,62.44
2023-03-06T18:19:00.718Z,63.62
2023-03-06T18:21:30.245Z,63.47
2023-03-06T18:23:59.929Z,62.84
2023-03-06T18:26:30.860Z,62.10
2023-03-06T18:29:04.441Z,63.07
2023-03-06T18:31:36.630Z,62.46
2023-03-06T18:34:08.222Z,62.16
2023-03-06T18:36:38.482Z,62.33
2023-03-06T18:39:09.807Z,64.17
2023-03-06T18:41:39.925Z,64.49
2023-03-06T18:44:14.524Z,63.70
2023-03-06T18:46:44.431Z,64.56
2023-03-06T18:49:15.872Z,63.22
2023-03-06T18:51:47.301Z,65.16
2023-03-06T18:54:16.782Z,65.72
2023-03-06T18:56:46.549Z,67.05
2023-03-06T18:59:19.034Z,67.77
2023-03-06T19:01:49.389Z,67.29
2023-03-06T19:04:18.817Z,65.68
2023-03-06T19:06:48.540Z,65.53
2023-03-06T19:09:17.864Z,65.19
2023-03-06T19:11:47.667Z,65.86
2023-03-06T19:14:18.929Z,64.83
2023-03-06T19:16:48.530Z,64.60
2023-03-06T19:19:17.783Z,64.50
2023-03-06T19:21:47.232Z,64.35
2023-03-06T19:24:16.706Z,63.84
2023-03-06T19:26:47.476Z,64.16
2023-03-06T19:29:18.549Z,63.98
2023-03-06T19:31:48.168Z,65.14
2023-03-06T19:34:17.358Z,65.12
2023-03-06T19:36:46.954Z,66.62
2023-03-06T19:39:16.272Z,66.15
2023-03-06T19:41:46.891Z,67.68
2023-03-06T19:44:18.719Z,68.78
2023-03-06T19:46:48.297Z,68.24
2023-03-06T19:49:18.240Z,67.39
2023-03-06T19:51:47.499Z,69.16
2023-03-06T19:54:16.701Z,67.61
2023-03-06T19:56:46.436Z,68.44
2023-03-06T19:59:17.128Z,67.57
2023-03-06T20:01:46.820Z,68.09
2023-03-06T20:04:17.533Z,68.41
2023-03-06T20:06:48.216Z,68.40
2023-03-06T20:09:17.757Z,69.10
2023-03-06T20:11:47.244Z,68.59
2023-03-06T20:14:19.414Z,69.64
2023-03-06T20:16:49.413Z,69.65
2023-03-06T20:19:19.392Z,70.46
2023-03-06T20:21:49.175Z,70.35
2023-03-06T20:24:19.287Z,69.98
2023-03-06T20:26:51.212Z,71.69
2023-03-06T20:29:22.250Z,70.23
2023-03-06T20:31:54.237Z,69.34
2023-03-06T20:34:24.122Z,68.54
2023-03-06T20:36:54.139Z,67.40
2023-03-06T20:39:23.469Z,67.96
2023-03-06T20:41:53.036Z,67.22
2023-03-06T20:44:23.862Z,66.28
2023-03-06T20:46:53.564Z,66.42
2023-03-06T20:49:23.018Z,67.06
2023-03-06T20:51:52.594Z,68.03
2023-03-06T20:54:21.870Z,68.77
2023-03-06T20:56:51.596Z,68.69
2023-03-06T20:59:23.800Z,68.30
2023-03-06T21:01:53.728Z,67.23
2023-03-06T21:04:23.263Z,67.39
2023-03-06T21:06:55.296Z,67.10
2023-03-06T21:09:24.523Z,67.04
2023-03-06T21:11:54.127Z,66.51
2023-03-06T21:14:24.719Z,65.85
2023-03-06T21:16:54.310Z,65.73
2023-03-06T21:19:23.471Z,65.54
2023-03-06T21:21:52.952Z,66.51
2023-03-06T21:24:22.204Z,66.30
2023-03-06T21:26:52.150Z,66.83
2023-03-06T21:29:21.518Z,66.68
2023-03-06T21:31:52.576Z,66.46
2023-03-06T21:34:21.762Z,66.34
2023-03-06T21:36:51.269Z,66.30
2023-03-06T21:39:21.118Z,67.18
2023-03-06T21:41:50.741Z,67.09
2023-03-06T21:44:20.029Z,66.73
2023-03-06T21:46:49.587Z,66.84
2023-03-06T21:49:23.001Z,66.67
2023-03-06T21:51:52.842Z,66.36
2023-03-06T21:54:22.040Z,65.91
2023-03-06T21:56:51.765Z,65.34
2023-03-06T21:59:21.001Z,65.67
2023-03-06T22:01:50.678Z,65.77
2023-03-06T22:04:21.303Z,65.43
2023-03-06T22:06:50.892Z,65.48
2023-03-06T22:09:20.263Z,65.26
2023-03-06T22:11:49.753Z,65.43
2023-03-06T22:14:19.117Z,65.82
2023-03-06T22:16:48.691Z,66.03
2023-03-06T22:19:17.952Z,65.91
2023-03-06T22:21:48.819Z,66.11
2023-03-06T22:24:18.032Z,66.14
2023-03-06T22:26:47.462Z,65.75
2023-03-06T22:29:16.643Z,65.80
2023-03-06T22:31:46.060Z,65.98
2023-03-06T22:34:15.227Z,65.62
2023-03-06T22:36:44.657Z,65.43
2023-03-06T22:39:15.697Z,65.50
2023-03-06T22:41:45.131Z,65.35
2023-03-06T22:44:18.355Z,65.18
2023-03-06T22:46:48.064Z,65.30
2023-03-06T22:49:17.349Z,65.32
2023-03-06T22:51:46.832Z,64.93
2023-03-06T22:54:17.414Z,64.33
2023-03-06T22:56:46.948Z,64.43
2023-03-06T22:59:16.069Z,64.50
2023-03-06T23:01:45.448Z,64.41
2023-03-06T23:04:14.620Z,64.02
2023-03-06T23:06:46.726Z,64.29
2023-03-06T23:09:20.705Z,64.93
2023-03-06T23:12:09.256Z,64.66
2023-03-06T23:14:57.517Z,64.43
2023-03-06T23:17:45.601Z,64.03
2023-03-06T23:20:33.529Z,64.70
2023-03-06T23:23:22.006Z,64.28
2023-03-06T23:25:53.055Z,64.63
2023-03-06T23:28:22.492Z,64.67
2023-03-06T23:30:51.819Z,64.59
2023-03-06T23:33:21.380Z,64.31
2023-03-06T23:35:50.837Z,64.24
2023-03-06T23:38:20.402Z,63.99
2023-03-06T23:40:51.490Z,63.92
2023-03-06T23:43:21.013Z,63.78
2023-03-06T23:45:56.870Z,64.10
2023-03-06T23:48:27.110Z,64.17
2023-03-06T23:50:56.418Z,64.18
2023-03-06T23:53:25.987Z,64.24
2023-03-06T23:55:56.656Z,64.26
2023-03-06T23:58:26.197Z,64.30
